sensor_id;sensor_type;location;lat;lon;timestamp;pressure;altitude;pressure_sealevel;temperature;humidity
76114;BME280;64845;53.086;5.834;2023-07-31T00:00:58;100784.31;;;15.98;82.61
76114;BME280;64845;53.086;5.834;2023-07-31T00:03:23;100786.22;;;15.96;82.55
76114;BME280;64845;53.086;5.834;2023-07-31T00:05:48;100787.28;;;15.93;82.63
76114;BME280;64845;53.086;5.834;2023-07-31T00:08:14;100783.81;;;15.91;82.86
76114;BME280;64845;53.086;5.834;2023-07-31T00:10:39;100779.41;;;15.90;82.89
76114;BME280;64845;53.086;5.834;2023-07-31T00:13:04;100782.28;;;15.87;83.16
76114;BME280;64845;53.086;5.834;2023-07-31T00:15:30;100781.44;;;15.86;83.19
76114;BME280;64845;53.086;5.834;2023-07-31T00:17:55;100778.78;;;15.85;83.10
76114;BME280;64845;53.086;5.834;2023-07-31T00:20:21;100776.03;;;15.86;83.05
76114;BME280;64845;53.086;5.834;2023-07-31T00:22:46;100785.06;;;15.85;83.33
76114;BME280;64845;53.086;5.834;2023-07-31T00:25:12;100778.72;;;15.86;83.40
76114;BME280;64845;53.086;5.834;2023-07-31T00:27:37;100775.16;;;15.86;83.50
76114;BME280;64845;53.086;5.834;2023-07-31T00:30:03;100781.44;;;15.86;83.49
76114;BME280;64845;53.086;5.834;2023-07-31T00:32:29;100765.44;;;15.83;83.25
76114;BME280;64845;53.086;5.834;2023-07-31T00:34:54;100769.06;;;15.82;83.76
76114;BME280;64845;53.086;5.834;2023-07-31T00:37:20;100772.63;;;15.83;83.49
76114;BME280;64845;53.086;5.834;2023-07-31T00:39:45;100770.88;;;15.82;83.70
76114;BME280;64845;53.086;5.834;2023-07-31T00:42:11;100769.06;;;15.82;83.65
76114;BME280;64845;53.086;5.834;2023-07-31T00:44:36;100774.53;;;15.81;83.84
76114;BME280;64845;53.086;5.834;2023-07-31T00:47:01;100764.66;;;15.81;83.73
76114;BME280;64845;53.086;5.834;2023-07-31T00:49:27;100762.81;;;15.82;83.91
76114;BME280;64845;53.086;5.834;2023-07-31T00:51:53;100763.69;;;15.82;83.86
76114;BME280;64845;53.086;5.834;2023-07-31T00:54:18;100758.31;;;15.82;83.90
76114;BME280;64845;53.086;5.834;2023-07-31T00:56:45;100766.38;;;15.82;84.00
76114;BME280;64845;53.086;5.834;2023-07-31T00:59:13;100757.44;;;15.82;84.00
76114;BME280;64845;53.086;5.834;2023-07-31T01:01:39;100751.19;;;15.81;83.99
76114;BME280;64845;53.086;5.834;2023-07-31T01:04:05;100757.53;;;15.80;83.98
76114;BME280;64845;53.086;5.834;2023-07-31T01:06:42;100760.34;;;15.79;84.27
76114;BME280;64845;53.086;5.834;2023-07-31T01:09:43;100755.91;;;15.78;84.21
76114;BME280;64845;53.086;5.834;2023-07-31T01:12:14;100751.56;;;15.75;84.31
76114;BME280;64845;53.086;5.834;2023-07-31T01:14:39;100748.97;;;15.74;84.37
76114;BME280;64845;53.086;5.834;2023-07-31T01:17:05;100749.16;;;15.70;84.39
76114;BME280;64845;53.086;5.834;2023-07-31T01:19:30;100745.59;;;15.70;84.44
76114;BME280;64845;53.086;5.834;2023-07-31T01:24:36;100738.59;;;15.67;84.32
76114;BME280;64845;53.086;5.834;2023-07-31T01:27:12;100737.63;;;15.68;84.44
76114;BME280;64845;53.086;5.834;2023-07-31T01:30:11;100732.25;;;15.68;84.36
76114;BME280;64845;53.086;5.834;2023-07-31T01:32:42;100732.25;;;15.68;84.31
76114;BME280;64845;53.086;5.834;2023-07-31T01:35:09;100734.94;;;15.68;84.39
76114;BME280;64845;53.086;5.834;2023-07-31T01:37:35;100727.94;;;15.66;84.38
76114;BME280;64845;53.086;5.834;2023-07-31T01:40:00;100726.09;;;15.66;84.36
76114;BME280;64845;53.086;5.834;2023-07-31T01:42:26;100721.66;;;15.65;84.25
76114;BME280;64845;53.086;5.834;2023-07-31T01:44:51;100719.84;;;15.66;84.13
76114;BME280;64845;53.086;5.834;2023-07-31T01:47:16;100722.44;;;15.67;84.37
76114;BME280;64845;53.086;5.834;2023-07-31T01:49:42;100717.06;;;15.67;84.32
76114;BME280;64845;53.086;5.834;2023-07-31T01:52:07;100718.78;;;15.68;84.25
76114;BME280;64845;53.086;5.834;2023-07-31T01:54:33;100715.25;;;15.68;84.44
76114;BME280;64845;53.086;5.834;2023-07-31T01:56:58;100713.50;;;15.67;84.23
76114;BME280;64845;53.086;5.834;2023-07-31T01:59:24;100711.78;;;15.66;84.29
76114;BME280;64845;53.086;5.834;2023-07-31T02:01:49;100710.91;;;15.65;84.42
76114;BME280;64845;53.086;5.834;2023-07-31T02:04:15;100705.63;;;15.64;84.50
76114;BME280;64845;53.086;5.834;2023-07-31T02:06:40;100701.09;;;15.64;84.49
76114;BME280;64845;53.086;5.834;2023-07-31T02:09:06;100696.66;;;15.63;84.25
76114;BME280;64845;53.086;5.834;2023-07-31T02:11:31;100689.53;;;15.62;84.25
76114;BME280;64845;53.086;5.834;2023-07-31T02:13:56;100691.47;;;15.60;84.39
76114;BME280;64845;53.086;5.834;2023-07-31T02:16:22;100691.75;;;15.55;84.23
76114;BME280;64845;53.086;5.834;2023-07-31T02:18:47;100698.03;;;15.56;84.44
76114;BME280;64845;53.086;5.834;2023-07-31T02:21:12;100689.06;;;15.55;84.46
76114;BME280;64845;53.086;5.834;2023-07-31T02:23:38;100684.56;;;15.56;84.36
76114;BME280;64845;53.086;5.834;2023-07-31T02:26:03;100680.22;;;15.53;84.48
76114;BME280;64845;53.086;5.834;2023-07-31T02:28:29;100680.16;;;15.55;84.39
76114;BME280;64845;53.086;5.834;2023-07-31T02:30:55;100682.91;;;15.53;84.33
76114;BME280;64845;53.086;5.834;2023-07-31T02:33:20;100678.50;;;15.52;84.52
76114;BME280;64845;53.086;5.834;2023-07-31T02:35:46;100687.44;;;15.53;84.60
76114;BME280;64845;53.086;5.834;2023-07-31T02:38:11;100681.28;;;15.51;84.53
76114;BME280;64845;53.086;5.834;2023-07-31T02:40:36;100679.56;;;15.50;84.44
76114;BME280;64845;53.086;5.834;2023-07-31T02:43:03;100678.91;;;15.46;84.48
76114;BME280;64845;53.086;5.834;2023-07-31T02:45:28;100677.25;;;15.44;84.62
76114;BME280;64845;53.086;5.834;2023-07-31T02:47:54;100687.34;;;15.40;84.63
76114;BME280;64845;53.086;5.834;2023-07-31T02:50:19;100678.69;;;15.35;84.60
76114;BME280;64845;53.086;5.834;2023-07-31T02:52:44;100669.94;;;15.31;84.60
76114;BME280;64845;53.086;5.834;2023-07-31T02:55:10;100667.63;;;15.25;84.73
76114;BME280;64845;53.086;5.834;2023-07-31T02:57:35;100658.13;;;15.19;84.66
76114;BME280;64845;53.086;5.834;2023-07-31T03:00:00;100666.28;;;15.18;84.78
76114;BME280;64845;53.086;5.834;2023-07-31T03:02:26;100658.41;;;15.15;85.09
76114;BME280;64845;53.086;5.834;2023-07-31T03:04:51;100662.03;;;15.14;84.79
76114;BME280;64845;53.086;5.834;2023-07-31T03:07:17;100661.09;;;15.15;84.82
76114;BME280;64845;53.086;5.834;2023-07-31T03:09:42;100651.19;;;15.15;84.87
76114;BME280;64845;53.086;5.834;2023-07-31T03:12:08;100656.38;;;15.18;84.86
76114;BME280;64845;53.086;5.834;2023-07-31T03:14:33;100649.25;;;15.17;84.99
76114;BME280;64845;53.086;5.834;2023-07-31T03:16:59;100643.81;;;15.19;84.89
76114;BME280;64845;53.086;5.834;2023-07-31T03:19:24;100651.88;;;15.19;84.95
76114;BME280;64845;53.086;5.834;2023-07-31T03:21:50;100645.53;;;15.20;85.01
76114;BME280;64845;53.086;5.834;2023-07-31T03:24:15;100645.53;;;15.20;84.90
76114;BME280;64845;53.086;5.834;2023-07-31T03:26:41;100644.56;;;15.21;85.00
76114;BME280;64845;53.086;5.834;2023-07-31T03:29:09;100649.19;;;15.19;84.85
76114;BME280;64845;53.086;5.834;2023-07-31T03:31:34;100641.13;;;15.19;85.20
76114;BME280;64845;53.086;5.834;2023-07-31T03:33:59;100642.84;;;15.20;84.96
76114;BME280;64845;53.086;5.834;2023-07-31T03:36:25;100636.50;;;15.21;85.12
76114;BME280;64845;53.086;5.834;2023-07-31T03:38:51;100634.78;;;15.20;85.21
76114;BME280;64845;53.086;5.834;2023-07-31T03:41:17;100641.88;;;15.21;85.60
76114;BME280;64845;53.086;5.834;2023-07-31T03:43:42;100630.16;;;15.22;85.36
76114;BME280;64845;53.086;5.834;2023-07-31T03:46:08;100623.81;;;15.23;85.37
76114;BME280;64845;53.086;5.834;2023-07-31T03:48:33;100622.84;;;15.24;85.37
76114;BME280;64845;53.086;5.834;2023-07-31T03:50:58;100624.59;;;15.25;85.46
76114;BME280;64845;53.086;5.834;2023-07-31T03:53:24;100619.31;;;15.23;85.49
76114;BME280;64845;53.086;5.834;2023-07-31T03:55:49;100612.09;;;15.24;85.44
76114;BME280;64845;53.086;5.834;2023-07-31T03:58:15;100620.94;;;15.26;85.60
76114;BME280;64845;53.086;5.834;2023-07-31T04:00:40;100618.16;;;15.28;85.42
76114;BME280;64845;53.086;5.834;2023-07-31T04:03:06;100615.38;;;15.29;85.50
76114;BME280;64845;53.086;5.834;2023-07-31T04:05:32;100611.72;;;15.30;85.56
76114;BME280;64845;53.086;5.834;2023-07-31T04:07:57;100608.06;;;15.31;85.55
76114;BME280;64845;53.086;5.834;2023-07-31T04:10:23;100609.81;;;15.32;85.52
76114;BME280;64845;53.086;5.834;2023-07-31T04:12:48;100604.41;;;15.32;85.74
76114;BME280;64845;53.086;5.834;2023-07-31T04:15:14;100615.19;;;15.32;85.71
76114;BME280;64845;53.086;5.834;2023-07-31T04:17:39;100615.25;;;15.31;85.58
76114;BME280;64845;53.086;5.834;2023-07-31T04:20:05;100613.44;;;15.31;85.83
76114;BME280;64845;53.086;5.834;2023-07-31T04:22:31;100605.38;;;15.31;85.98
76114;BME280;64845;53.086;5.834;2023-07-31T04:24:56;100607.13;;;15.32;85.83
76114;BME280;64845;53.086;5.834;2023-07-31T04:27:21;100615.06;;;15.34;85.95
76114;BME280;64845;53.086;5.834;2023-07-31T04:29:47;100615.00;;;15.35;86.03
76114;BME280;64845;53.086;5.834;2023-07-31T04:32:12;100622.28;;;15.33;86.13
76114;BME280;64845;53.086;5.834;2023-07-31T04:34:38;100617.94;;;15.31;86.38
76114;BME280;64845;53.086;5.834;2023-07-31T04:37:03;100610.09;;;15.28;86.17
76114;BME280;64845;53.086;5.834;2023-07-31T04:39:29;100611.91;;;15.27;86.25
76114;BME280;64845;53.086;5.834;2023-07-31T04:41:54;100601.34;;;15.24;86.28
76114;BME280;64845;53.086;5.834;2023-07-31T04:44:20;100599.59;;;15.23;86.39
76114;BME280;64845;53.086;5.834;2023-07-31T04:46:45;100608.56;;;15.23;86.46
76114;BME280;64845;53.086;5.834;2023-07-31T04:49:11;100605.88;;;15.23;86.48
76114;BME280;64845;53.086;5.834;2023-07-31T04:51:37;100598.75;;;15.22;86.48
76114;BME280;64845;53.086;5.834;2023-07-31T04:54:02;100597.03;;;15.21;86.58
76114;BME280;64845;53.086;5.834;2023-07-31T04:56:28;100594.34;;;15.21;86.68
76114;BME280;64845;53.086;5.834;2023-07-31T04:58:53;100596.06;;;15.22;86.60
76114;BME280;64845;53.086;5.834;2023-07-31T05:01:18;100594.22;;;15.23;86.62
76114;BME280;64845;53.086;5.834;2023-07-31T05:03:44;100594.16;;;15.24;86.61
76114;BME280;64845;53.086;5.834;2023-07-31T05:06:09;100587.63;;;15.29;86.50
76114;BME280;64845;53.086;5.834;2023-07-31T05:08:34;100578.47;;;15.31;86.63
76114;BME280;64845;53.086;5.834;2023-07-31T05:11:00;100580.09;;;15.34;86.73
76114;BME280;64845;53.086;5.834;2023-07-31T05:13:25;100579.06;;;15.36;86.74
76114;BME280;64845;53.086;5.834;2023-07-31T05:15:51;100578.00;;;15.39;86.61
76114;BME280;64845;53.086;5.834;2023-07-31T05:18:16;100577.81;;;15.42;86.76
76114;BME280;64845;53.086;5.834;2023-07-31T05:20:41;100571.34;;;15.45;86.77
76114;BME280;64845;53.086;5.834;2023-07-31T05:23:07;100567.63;;;15.47;87.03
76114;BME280;64845;53.086;5.834;2023-07-31T05:25:32;100562.00;;;15.50;86.78
76114;BME280;64845;53.086;5.834;2023-07-31T05:27:57;100565.59;;;15.51;86.95
76114;BME280;64845;53.086;5.834;2023-07-31T05:30:23;100561.81;;;15.53;87.07
76114;BME280;64845;53.086;5.834;2023-07-31T05:32:48;100566.34;;;15.53;87.15
76114;BME280;64845;53.086;5.834;2023-07-31T05:35:14;100563.66;;;15.53;87.02
76114;BME280;64845;53.086;5.834;2023-07-31T05:37:39;100562.59;;;15.55;87.19
76114;BME280;64845;53.086;5.834;2023-07-31T05:40:05;100548.16;;;15.56;87.10
76114;BME280;64845;53.086;5.834;2023-07-31T05:42:30;100542.72;;;15.58;87.24
76114;BME280;64845;53.086;5.834;2023-07-31T05:44:56;100546.91;;;15.62;87.09
76114;BME280;64845;53.086;5.834;2023-07-31T05:47:21;100542.41;;;15.63;87.26
76114;BME280;64845;53.086;5.834;2023-07-31T05:49:47;100549.31;;;15.67;87.16
76114;BME280;64845;53.086;5.834;2023-07-31T05:52:13;100547.41;;;15.69;87.17
76114;BME280;64845;53.086;5.834;2023-07-31T05:54:44;100547.16;;;15.72;87.26
76114;BME280;64845;53.086;5.834;2023-07-31T05:57:16;100537.16;;;15.74;87.50
76114;BME280;64845;53.086;5.834;2023-07-31T05:59:42;100540.53;;;15.78;87.30
76114;BME280;64845;53.086;5.834;2023-07-31T06:02:07;100534.19;;;15.79;87.51
76114;BME280;64845;53.086;5.834;2023-07-31T06:04:32;100535.88;;;15.80;87.31
76114;BME280;64845;53.086;5.834;2023-07-31T06:06:58;100542.03;;;15.82;87.35
76114;BME280;64845;53.086;5.834;2023-07-31T06:09:23;100535.69;;;15.83;87.35
76114;BME280;64845;53.086;5.834;2023-07-31T06:11:49;100541.00;;;15.84;87.43
76114;BME280;64845;53.086;5.834;2023-07-31T06:14:14;100539.94;;;15.87;87.29
76114;BME280;64845;53.086;5.834;2023-07-31T06:16:40;100538.03;;;15.89;87.59
76114;BME280;64845;53.086;5.834;2023-07-31T06:19:05;100534.38;;;15.90;87.40
76114;BME280;64845;53.086;5.834;2023-07-31T06:21:32;100526.94;;;15.94;87.58
76114;BME280;64845;53.086;5.834;2023-07-31T06:23:57;100527.81;;;15.94;87.36
76114;BME280;64845;53.086;5.834;2023-07-31T06:26:23;100524.03;;;15.97;87.39
76114;BME280;64845;53.086;5.834;2023-07-31T06:28:48;100519.53;;;15.97;87.21
76114;BME280;64845;53.086;5.834;2023-07-31T06:31:14;100523.09;;;15.98;87.34
76114;BME280;64845;53.086;5.834;2023-07-31T06:33:39;100525.56;;;16.01;87.44
76114;BME280;64845;53.086;5.834;2023-07-31T06:36:04;100520.19;;;16.01;87.47
76114;BME280;64845;53.086;5.834;2023-07-31T06:38:30;100519.31;;;16.00;87.32
76114;BME280;64845;53.086;5.834;2023-07-31T06:40:55;100509.50;;;15.99;87.41
76114;BME280;64845;53.086;5.834;2023-07-31T06:43:21;100513.16;;;15.98;87.32
76114;BME280;64845;53.086;5.834;2023-07-31T06:45:46;100506.81;;;15.99;87.34
76114;BME280;64845;53.086;5.834;2023-07-31T06:48:13;100504.88;;;16.01;87.45
76114;BME280;64845;53.086;5.834;2023-07-31T06:50:39;100500.16;;;16.05;87.49
76114;BME280;64845;53.086;5.834;2023-07-31T06:53:04;100492.84;;;16.07;87.49
76114;BME280;64845;53.086;5.834;2023-07-31T06:55:30;100482.94;;;16.08;87.60
76114;BME280;64845;53.086;5.834;2023-07-31T06:57:57;100487.56;;;16.06;87.43
76114;BME280;64845;53.086;5.834;2023-07-31T07:00:22;100484.78;;;16.07;87.37
76114;BME280;64845;53.086;5.834;2023-07-31T07:02:48;100478.38;;;16.08;87.48
76114;BME280;64845;53.086;5.834;2023-07-31T07:05:14;100481.84;;;16.10;87.95
76114;BME280;64845;53.086;5.834;2023-07-31T07:07:40;100478.09;;;16.13;87.69
76114;BME280;64845;53.086;5.834;2023-07-31T07:10:06;100477.00;;;16.15;87.73
76114;BME280;64845;53.086;5.834;2023-07-31T07:12:32;100477.56;;;16.21;87.66
76114;BME280;64845;53.086;5.834;2023-07-31T07:14:58;100470.25;;;16.23;87.58
76114;BME280;64845;53.086;5.834;2023-07-31T07:17:25;100471.66;;;16.28;87.59
76114;BME280;64845;53.086;5.834;2023-07-31T07:19:50;100467.88;;;16.31;87.68
76114;BME280;64845;53.086;5.834;2023-07-31T07:22:16;100475.88;;;16.33;87.57
76114;BME280;64845;53.086;5.834;2023-07-31T07:24:41;100468.53;;;16.35;87.51
76114;BME280;64845;53.086;5.834;2023-07-31T07:27:07;100463.03;;;16.36;87.79
76114;BME280;64845;53.086;5.834;2023-07-31T07:29:33;100460.22;;;16.38;87.81
76114;BME280;64845;53.086;5.834;2023-07-31T07:31:59;100454.84;;;16.38;87.59
76114;BME280;64845;53.086;5.834;2023-07-31T07:34:28;100453.97;;;16.37;87.64
76114;BME280;64845;53.086;5.834;2023-07-31T07:36:54;100448.59;;;16.37;87.71
76114;BME280;64845;53.086;5.834;2023-07-31T07:39:20;100449.34;;;16.39;87.75
76114;BME280;64845;53.086;5.834;2023-07-31T07:41:46;100448.38;;;16.40;87.77
76114;BME280;64845;53.086;5.834;2023-07-31T07:44:12;100451.94;;;16.41;87.66
76114;BME280;64845;53.086;5.834;2023-07-31T07:46:39;100451.84;;;16.42;87.68
76114;BME280;64845;53.086;5.834;2023-07-31T07:49:05;100450.88;;;16.43;87.80
76114;BME280;64845;53.086;5.834;2023-07-31T07:51:30;100448.06;;;16.45;87.69
76114;BME280;64845;53.086;5.834;2023-07-31T07:53:57;100442.66;;;16.45;87.80
76114;BME280;64845;53.086;5.834;2023-07-31T07:56:23;100442.56;;;16.46;87.76
76114;BME280;64845;53.086;5.834;2023-07-31T07:58:49;100442.44;;;16.48;87.82
76114;BME280;64845;53.086;5.834;2023-07-31T08:01:15;100438.66;;;16.51;87.81
76114;BME280;64845;53.086;5.834;2023-07-31T08:03:41;100434.91;;;16.53;87.85
76114;BME280;64845;53.086;5.834;2023-07-31T08:06:06;100435.56;;;16.57;87.76
76114;BME280;64845;53.086;5.834;2023-07-31T08:08:34;100429.72;;;16.63;87.92
76114;BME280;64845;53.086;5.834;2023-07-31T08:10:59;100432.22;;;16.66;87.82
76114;BME280;64845;53.086;5.834;2023-07-31T08:13:25;100426.81;;;16.66;87.69
76114;BME280;64845;53.086;5.834;2023-07-31T08:15:50;100431.22;;;16.67;87.81
76114;BME280;64845;53.086;5.834;2023-07-31T08:18:15;100424.75;;;16.70;87.98
76114;BME280;64845;53.086;5.834;2023-07-31T08:20:42;100427.34;;;16.71;88.02
76114;BME280;64845;53.086;5.834;2023-07-31T08:23:07;100426.50;;;16.71;87.79
76114;BME280;64845;53.086;5.834;2023-07-31T08:25:35;100430.03;;;16.71;88.03
76114;BME280;64845;53.086;5.834;2023-07-31T08:28:01;100425.50;;;16.72;87.93
76114;BME280;64845;53.086;5.834;2023-07-31T08:30:26;100420.88;;;16.74;88.04
76114;BME280;64845;53.086;5.834;2023-07-31T08:32:52;100414.59;;;16.73;88.11
76114;BME280;64845;53.086;5.834;2023-07-31T08:35:17;100408.16;;;16.76;88.11
76114;BME280;64845;53.086;5.834;2023-07-31T08:37:43;100410.50;;;16.81;88.28
76114;BME280;64845;53.086;5.834;2023-07-31T08:40:09;100407.59;;;16.84;88.30
76114;BME280;64845;53.086;5.834;2023-07-31T08:42:43;100408.44;;;16.84;88.25
76114;BME280;64845;53.086;5.834;2023-07-31T08:45:09;100411.91;;;16.86;88.32
76114;BME280;64845;53.086;5.834;2023-07-31T08:47:34;100413.63;;;16.87;88.24
76114;BME280;64845;53.086;5.834;2023-07-31T08:50:01;100413.97;;;16.83;88.31
76114;BME280;64845;53.086;5.834;2023-07-31T08:52:27;100412.03;;;16.85;88.31
76114;BME280;64845;53.086;5.834;2023-07-31T08:54:52;100411.03;;;16.86;88.34
76114;BME280;64845;53.086;5.834;2023-07-31T08:57:18;100402.84;;;16.87;88.42
76114;BME280;64845;53.086;5.834;2023-07-31T08:59:44;100408.22;;;16.87;88.50
76114;BME280;64845;53.086;5.834;2023-07-31T09:02:11;100408.00;;;16.90;88.36
76114;BME280;64845;53.086;5.834;2023-07-31T09:04:38;100405.09;;;16.94;88.39
76114;BME280;64845;53.086;5.834;2023-07-31T09:07:05;100410.41;;;16.95;88.57
76114;BME280;64845;53.086;5.834;2023-07-31T09:09:31;100406.59;;;16.98;88.44
76114;BME280;64845;53.086;5.834;2023-07-31T09:11:58;100407.25;;;17.01;88.32
76114;BME280;64845;53.086;5.834;2023-07-31T09:14:25;100399.78;;;17.05;88.55
76114;BME280;64845;53.086;5.834;2023-07-31T09:16:52;100403.88;;;17.11;88.44
76114;BME280;64845;53.086;5.834;2023-07-31T09:19:29;100393.63;;;17.16;88.52
76114;BME280;64845;53.086;5.834;2023-07-31T09:21:55;100392.84;;;17.14;88.69
76114;BME280;64845;53.086;5.834;2023-07-31T09:24:31;100399.44;;;17.10;88.57
76114;BME280;64845;53.086;5.834;2023-07-31T09:26:59;100389.53;;;17.10;88.87
76114;BME280;64845;53.086;5.834;2023-07-31T09:29:26;100397.84;;;17.07;88.51
76114;BME280;64845;53.086;5.834;2023-07-31T09:31:53;100389.53;;;17.10;88.51
76114;BME280;64845;53.086;5.834;2023-07-31T09:34:19;100391.66;;;17.18;88.57
76114;BME280;64845;53.086;5.834;2023-07-31T09:36:50;100385.16;;;17.20;88.64
76114;BME280;64845;53.086;5.834;2023-07-31T09:39:19;100391.22;;;17.24;88.51
76114;BME280;64845;53.086;5.834;2023-07-31T09:41:54;100392.69;;;17.28;88.64
76114;BME280;64845;53.086;5.834;2023-07-31T09:44:19;100392.59;;;17.30;88.76
76114;BME280;64845;53.086;5.834;2023-07-31T09:46:45;100389.91;;;17.30;88.83
76114;BME280;64845;53.086;5.834;2023-07-31T09:49:12;100394.13;;;17.21;88.52
76114;BME280;64845;53.086;5.834;2023-07-31T09:51:42;100392.28;;;17.21;88.64
76114;BME280;64845;53.086;5.834;2023-07-31T09:54:14;100395.88;;;17.22;88.46
76114;BME280;64845;53.086;5.834;2023-07-31T09:56:45;100390.13;;;17.27;88.73
76114;BME280;64845;53.086;5.834;2023-07-31T09:59:13;100386.31;;;17.29;88.59
76114;BME280;64845;53.086;5.834;2023-07-31T10:01:40;100392.38;;;17.33;88.54
76114;BME280;64845;53.086;5.834;2023-07-31T10:04:08;100383.78;;;17.39;88.61
76114;BME280;64845;53.086;5.834;2023-07-31T10:06:35;100378.78;;;17.46;88.58
76114;BME280;64845;53.086;5.834;2023-07-31T10:09:02;100375.28;;;17.57;88.63
76114;BME280;64845;53.086;5.834;2023-07-31T10:11:30;100381.19;;;17.62;88.71
76114;BME280;64845;53.086;5.834;2023-07-31T10:13:56;100375.19;;;17.70;88.59
76114;BME280;64845;53.086;5.834;2023-07-31T10:16:22;100382.84;;;17.76;88.73
76114;BME280;64845;53.086;5.834;2023-07-31T10:18:49;100381.25;;;17.73;88.54
76114;BME280;64845;53.086;5.834;2023-07-31T10:21:15;100385.91;;;17.71;88.64
76114;BME280;64845;53.086;5.834;2023-07-31T10:23:42;100385.16;;;17.69;88.85
76114;BME280;64845;53.086;5.834;2023-07-31T10:26:08;100384.78;;;17.62;88.42
76114;BME280;64845;53.086;5.834;2023-07-31T10:28:36;100374.28;;;17.58;88.41
76114;BME280;64845;53.086;5.834;2023-07-31T10:31:03;100377.97;;;17.57;88.50
76114;BME280;64845;53.086;5.834;2023-07-31T10:33:29;100367.81;;;17.60;88.41
76114;BME280;64845;53.086;5.834;2023-07-31T10:36:14;100377.50;;;17.63;88.45
76114;BME280;64845;53.086;5.834;2023-07-31T10:38:42;100372.19;;;17.74;88.38
76114;BME280;64845;53.086;5.834;2023-07-31T10:41:08;100371.22;;;17.87;88.50
76114;BME280;64845;53.086;5.834;2023-07-31T10:43:36;100382.13;;;17.85;88.45
76114;BME280;64845;53.086;5.834;2023-07-31T10:46:07;100377.72;;;17.84;88.37
76114;BME280;64845;53.086;5.834;2023-07-31T10:48:34;100381.50;;;17.81;88.30
76114;BME280;64845;53.086;5.834;2023-07-31T10:51:00;100391.09;;;17.86;88.26
76114;BME280;64845;53.086;5.834;2023-07-31T10:53:32;100385.47;;;17.89;88.17
76114;BME280;64845;53.086;5.834;2023-07-31T10:56:10;100385.94;;;17.82;88.38
76114;BME280;64845;53.086;5.834;2023-07-31T10:58:43;100388.00;;;17.79;88.21
76114;BME280;64845;53.086;5.834;2023-07-31T11:01:09;100391.31;;;17.82;87.98
76114;BME280;64845;53.086;5.834;2023-07-31T11:03:47;100384.72;;;17.87;88.15
76114;BME280;64845;53.086;5.834;2023-07-31T11:06:15;100381.78;;;17.90;88.05
76114;BME280;64845;53.086;5.834;2023-07-31T11:08:48;100386.97;;;17.93;87.92
76114;BME280;64845;53.086;5.834;2023-07-31T11:11:16;100383.28;;;17.94;87.77
76114;BME280;64845;53.086;5.834;2023-07-31T11:13:49;100393.81;;;17.97;88.00
76114;BME280;64845;53.086;5.834;2023-07-31T11:16:16;100402.91;;;17.96;88.01
76114;BME280;64845;53.086;5.834;2023-07-31T11:18:43;100388.41;;;17.97;87.88
76114;BME280;64845;53.086;5.834;2023-07-31T11:21:14;100377.59;;;17.97;87.87
76114;BME280;64845;53.086;5.834;2023-07-31T11:23:40;100389.28;;;17.97;87.89
76114;BME280;64845;53.086;5.834;2023-07-31T11:26:05;100389.16;;;17.88;87.78
76114;BME280;64845;53.086;5.834;2023-07-31T11:28:34;100388.41;;;17.86;87.90
76114;BME280;64845;53.086;5.834;2023-07-31T11:31:00;100381.41;;;17.83;87.84
76114;BME280;64845;53.086;5.834;2023-07-31T11:33:26;100377.09;;;17.80;87.83
76114;BME280;64845;53.086;5.834;2023-07-31T11:35:51;100374.38;;;17.80;87.75
76114;BME280;64845;53.086;5.834;2023-07-31T11:38:24;100375.13;;;17.82;87.80
76114;BME280;64845;53.086;5.834;2023-07-31T11:40:50;100361.25;;;17.87;87.67
76114;BME280;64845;53.086;5.834;2023-07-31T11:43:15;100374.44;;;17.92;87.71
76114;BME280;64845;53.086;5.834;2023-07-31T11:45:50;100366.06;;;17.95;87.72
76114;BME280;64845;53.086;5.834;2023-07-31T11:48:19;100364.88;;;17.99;87.69
76114;BME280;64845;53.086;5.834;2023-07-31T11:50:45;100356.19;;;18.07;87.75
76114;BME280;64845;53.086;5.834;2023-07-31T11:53:11;100366.13;;;18.18;87.68
76114;BME280;64845;53.086;5.834;2023-07-31T11:55:37;100371.06;;;18.24;87.78
76114;BME280;64845;53.086;5.834;2023-07-31T11:58:03;100370.47;;;18.32;87.56
76114;BME280;64845;53.086;5.834;2023-07-31T12:00:28;100365.06;;;18.32;87.48
76114;BME280;64845;53.086;5.834;2023-07-31T12:02:54;100373.53;;;18.27;87.45
76114;BME280;64845;53.086;5.834;2023-07-31T12:05:19;100367.88;;;18.30;87.34
76114;BME280;64845;53.086;5.834;2023-07-31T12:07:48;100370.09;;;18.25;87.32
76114;BME280;64845;53.086;5.834;2023-07-31T12:15:30;100375.75;;;18.33;87.03
76114;BME280;64845;53.086;5.834;2023-07-31T12:17:57;100389.00;;;18.36;86.98
76114;BME280;64845;53.086;5.834;2023-07-31T12:20:22;100379.06;;;18.37;86.88
76114;BME280;64845;53.086;5.834;2023-07-31T12:22:47;100375.38;;;18.38;86.80
76114;BME280;64845;53.086;5.834;2023-07-31T12:25:15;100385.97;;;18.41;86.85
76114;BME280;64845;53.086;5.834;2023-07-31T12:27:44;100380.19;;;18.46;86.69
76114;BME280;64845;53.086;5.834;2023-07-31T12:30:25;100372.91;;;18.46;86.75
76114;BME280;64845;53.086;5.834;2023-07-31T12:32:51;100361.00;;;18.49;86.66
76114;BME280;64845;53.086;5.834;2023-07-31T12:35:16;100352.78;;;18.50;86.54
76114;BME280;64845;53.086;5.834;2023-07-31T12:37:41;100371.09;;;18.47;86.23
76114;BME280;64845;53.086;5.834;2023-07-31T12:40:07;100360.66;;;18.42;86.21
76114;BME280;64845;53.086;5.834;2023-07-31T12:42:32;100356.84;;;18.45;85.90
76114;BME280;64845;53.086;5.834;2023-07-31T12:44:58;100357.81;;;18.43;85.75
76114;BME280;64845;53.086;5.834;2023-07-31T12:47:23;100355.84;;;18.46;85.64
76114;BME280;64845;53.086;5.834;2023-07-31T12:49:49;100355.38;;;18.52;85.63
76114;BME280;64845;53.086;5.834;2023-07-31T12:52:14;100346.88;;;18.56;85.51
76114;BME280;64845;53.086;5.834;2023-07-31T12:54:39;100349.19;;;18.61;85.45